Time;durP1;ratioP1;P1;durP2;ratioP2;P2;SDS_P1;SDS_P2;PMS_P1;PMS_P2;Temp;Humidity;BMP_temperature;BMP_pressure;BME280_temperature;BME280_humidity;BME280_pressure;Samples;Min_cycle;Max_cycle;Signal;HPM_P1;HPM_P2
2021/01/03 00:01:12;;;;;;;13.40;9.68;;;0.90;99.90;;;;;;5085567;28;20055;-65
2021/01/03 00:03:39;;;;;;;14.98;10.27;;;0.80;99.90;;;;;;5087241;28;20579;-66
2021/01/03 00:06:08;;;;;;;14.15;10.27;;;0.80;99.90;;;;;;5084829;28;20024;-66
2021/01/03 00:08:34;;;;;;;15.82;9.82;;;0.90;99.90;;;;;;5086331;28;20016;-65
2021/01/03 00:11:00;;;;;;;15.18;9.90;;;0.80;99.90;;;;;;5083611;28;20381;-65
2021/01/03 00:13:25;;;;;;;14.30;10.20;;;0.90;99.90;;;;;;5090579;28;20437;-65
2021/01/03 00:15:51;;;;;;;15.23;10.15;;;0.80;99.90;;;;;;5084460;28;20106;-66
2021/01/03 00:18:17;;;;;;;14.15;9.95;;;0.90;99.90;;;;;;5089428;28;20019;-65
2021/01/03 00:20:42;;;;;;;13.60;9.73;;;0.90;99.90;;;;;;5086560;28;20028;-66
2021/01/03 00:23:08;;;;;;;13.18;9.27;;;0.80;99.90;;;;;;5088501;28;20039;-66
2021/01/03 00:25:34;;;;;;;17.23;9.95;;;0.70;99.90;;;;;;5086931;28;20031;-65
2021/01/03 00:28:00;;;;;;;18.80;10.32;;;0.90;99.90;;;;;;5085486;28;20520;-65
2021/01/03 00:30:28;;;;;;;14.93;10.68;;;0.80;99.90;;;;;;5087981;28;20024;-65
2021/01/03 00:32:55;;;;;;;10.95;9.15;;;0.80;99.90;;;;;;5085232;28;20028;-65
2021/01/03 00:35:26;;;;;;;12.32;8.95;;;0.90;99.90;;;;;;5087932;28;20024;-66
2021/01/03 00:37:52;;;;;;;13.63;9.48;;;0.80;99.90;;;;;;5085644;28;20035;-65
2021/01/03 00:40:21;;;;;;;15.45;10.48;;;0.90;99.90;;;;;;5087768;28;20029;-66
2021/01/03 00:42:46;;;;;;;13.57;9.82;;;0.90;99.90;;;;;;5081546;28;20016;-66
2021/01/03 00:45:13;;;;;;;14.63;9.95;;;0.80;99.90;;;;;;5087560;28;20026;-66
2021/01/03 00:47:38;;;;;;;12.20;8.80;;;0.90;99.90;;;;;;5080885;28;20024;-66
2021/01/03 00:50:06;;;;;;;12.48;9.57;;;0.80;99.90;;;;;;5088848;28;20101;-65
2021/01/03 00:52:32;;;;;;;15.75;10.13;;;0.80;99.90;;;;;;5087239;28;20056;-65
2021/01/03 00:54:58;;;;;;;14.05;10.57;;;0.80;99.90;;;;;;5088835;28;20508;-65
2021/01/03 00:57:24;;;;;;;16.55;10.30;;;0.80;99.90;;;;;;5084410;28;20024;-65
2021/01/03 00:59:49;;;;;;;14.13;9.82;;;0.80;99.90;;;;;;5089580;28;20024;-65
2021/01/03 01:02:15;;;;;;;17.35;10.95;;;0.70;99.90;;;;;;5084791;28;20116;-65
2021/01/03 01:04:40;;;;;;;15.30;10.25;;;0.90;99.90;;;;;;5087796;28;20028;-66
2021/01/03 01:07:06;;;;;;;14.27;9.68;;;0.80;99.90;;;;;;5083493;28;20032;-65
2021/01/03 01:09:32;;;;;;;14.35;10.93;;;0.90;99.90;;;;;;5085341;28;20040;-66
2021/01/03 01:11:57;;;;;;;15.55;10.40;;;0.80;99.90;;;;;;5083260;28;20028;-66
2021/01/03 01:14:23;;;;;;;12.40;10.00;;;0.90;99.90;;;;;;5084148;28;20067;-65
2021/01/03 01:16:49;;;;;;;15.27;10.50;;;0.80;99.90;;;;;;5082609;28;20047;-65
2021/01/03 01:19:15;;;;;;;16.40;10.98;;;0.80;99.90;;;;;;5089452;28;20082;-65
2021/01/03 01:21:41;;;;;;;18.52;10.77;;;0.90;99.90;;;;;;5082852;28;20036;-65
2021/01/03 01:24:07;;;;;;;14.75;10.52;;;0.80;99.90;;;;;;5089395;28;20040;-65
2021/01/03 01:26:33;;;;;;;18.33;10.05;;;0.80;99.90;;;;;;5082750;28;20039;-65
2021/01/03 01:28:59;;;;;;;18.05;10.30;;;0.90;99.90;;;;;;5089403;28;20388;-65
2021/01/03 01:31:25;;;;;;;14.93;9.95;;;0.90;99.90;;;;;;5082632;28;20028;-65
2021/01/03 01:33:50;;;;;;;19.83;11.38;;;0.80;99.90;;;;;;5093286;28;20020;-65
2021/01/03 01:36:16;;;;;;;16.83;10.43;;;0.90;99.90;;;;;;5086843;28;20028;-65
2021/01/03 01:38:42;;;;;;;15.95;9.25;;;0.90;99.90;;;;;;5093416;28;20134;-65
2021/01/03 01:41:07;;;;;;;11.40;9.15;;;0.90;99.90;;;;;;5089637;28;20491;-65
2021/01/03 01:43:33;;;;;;;15.90;9.68;;;0.70;99.90;;;;;;5093308;28;20028;-65
2021/01/03 01:46:00;;;;;;;12.65;9.88;;;0.90;99.90;;;;;;5086603;28;20029;-65
2021/01/03 01:48:27;;;;;;;15.38;9.40;;;0.70;99.90;;;;;;5091153;28;20024;-66
2021/01/03 01:50:57;;;;;;;13.73;9.80;;;0.70;99.90;;;;;;5090586;28;20032;-65
2021/01/03 01:53:46;;;;;;;11.52;9.52;;;0.80;99.90;;;;;;5091819;28;20098;-66
2021/01/03 01:56:38;;;;;;;12.38;9.55;;;0.80;99.90;;;;;;5089613;28;20031;-65
2021/01/03 01:59:37;;;;;;;15.32;10.20;;;0.90;99.90;;;;;;5071586;28;20033;-65
2021/01/03 02:02:30;;;;;;;15.50;10.20;;;0.90;99.90;;;;;;5081471;28;20052;-65
2021/01/03 02:05:12;;;;;;;15.60;9.50;;;0.80;99.90;;;;;;5092764;28;20167;-65
2021/01/03 02:08:20;;;;;;;12.05;9.85;;;0.80;99.90;;;;;;5088965;28;20024;-65
2021/01/03 02:10:49;;;;;;;14.80;9.70;;;0.90;99.90;;;;;;5087626;28;20031;-65
2021/01/03 02:13:18;;;;;;;11.77;9.02;;;0.80;99.90;;;;;;5091437;28;20492;-65
2021/01/03 02:15:43;;;;;;;13.40;9.68;;;0.80;99.90;;;;;;5089110;28;20036;-65
2021/01/03 02:18:11;;;;;;;12.82;9.80;;;0.80;99.90;;;;;;5090407;28;20039;-66
2021/01/03 02:21:02;;;;;;;15.70;10.45;;;0.80;99.90;;;;;;5090212;28;20488;-66
2021/01/03 02:24:01;;;;;;;13.25;9.55;;;0.80;99.90;;;;;;5085435;28;20020;-65
2021/01/03 02:26:30;;;;;;;15.00;9.95;;;0.80;99.90;;;;;;5086783;28;20024;-65
2021/01/03 02:28:57;;;;;;;12.55;9.07;;;0.70;99.90;;;;;;5088009;28;20020;-65
2021/01/03 02:31:36;;;;;;;14.40;9.57;;;0.80;99.90;;;;;;5086869;28;20086;-66
2021/01/03 02:34:05;;;;;;;12.88;9.93;;;0.80;99.90;;;;;;5088413;28;20028;-66
2021/01/03 02:36:41;;;;;;;13.35;9.55;;;0.80;99.90;;;;;;5089716;28;20020;-65
2021/01/03 02:39:22;;;;;;;11.15;9.00;;;0.80;99.90;;;;;;5090364;28;20024;-66
2021/01/03 02:41:51;;;;;;;16.92;9.65;;;0.80;99.90;;;;;;5088122;28;20122;-65
2021/01/03 02:44:17;;;;;;;10.93;9.23;;;0.80;99.90;;;;;;5091814;28;20031;-65
2021/01/03 02:46:42;;;;;;;12.23;8.90;;;0.90;99.90;;;;;;5085399;28;20393;-65
2021/01/03 02:49:08;;;;;;;12.65;9.73;;;0.70;99.90;;;;;;5073744;28;20074;-65
2021/01/03 02:51:39;;;;;;;12.23;9.60;;;0.80;99.90;;;;;;5088441;28;20081;-65
2021/01/03 02:54:06;;;;;;;11.68;8.80;;;0.70;99.90;;;;;;5089287;28;20183;-65
2021/01/03 02:56:32;;;;;;;14.68;9.35;;;0.90;99.90;;;;;;5087311;28;20024;-65
2021/01/03 02:58:58;;;;;;;12.70;9.95;;;0.80;99.90;;;;;;5088507;28;20479;-65
2021/01/03 03:01:23;;;;;;;11.30;9.15;;;1.00;99.90;;;;;;5086089;28;20104;-65
2021/01/03 03:03:49;;;;;;;13.02;9.07;;;0.80;99.90;;;;;;5087363;28;20028;-65
2021/01/03 03:06:15;;;;;;;10.57;9.10;;;0.80;99.90;;;;;;5085063;28;20029;-65
2021/01/03 03:08:41;;;;;;;9.63;8.25;;;0.80;99.90;;;;;;5086647;28;20028;-65
2021/01/03 03:11:07;;;;;;;11.23;9.10;;;0.90;99.90;;;;;;5084649;28;20021;-66
2021/01/03 03:13:33;;;;;;;13.00;9.02;;;0.90;99.90;;;;;;5091619;28;20032;-66
2021/01/03 03:15:58;;;;;;;10.90;8.45;;;0.80;99.90;;;;;;5085201;28;20053;-65
2021/01/03 03:18:24;;;;;;;11.07;8.27;;;1.00;99.90;;;;;;5091006;28;20024;-65
2021/01/03 03:20:50;;;;;;;10.65;8.73;;;0.90;99.90;;;;;;5086551;28;20032;-65
2021/01/03 03:23:15;;;;;;;13.30;8.75;;;0.90;99.90;;;;;;5089677;28;20113;-66
2021/01/03 03:25:41;;;;;;;10.32;8.40;;;0.90;99.90;;;;;;5087467;28;20038;-65
2021/01/03 03:28:07;;;;;;;10.35;8.10;;;0.90;99.90;;;;;;5088607;28;20059;-66
2021/01/03 03:30:32;;;;;;;12.38;9.10;;;0.80;99.90;;;;;;5088382;28;20119;-65
2021/01/03 03:32:59;;;;;;;12.40;8.93;;;1.00;99.90;;;;;;5087267;28;20028;-66
2021/01/03 03:35:30;;;;;;;11.20;8.82;;;0.80;99.90;;;;;;5089284;28;20020;-65
2021/01/03 03:37:57;;;;;;;11.45;9.00;;;0.80;99.90;;;;;;5086908;28;20032;-65
2021/01/03 03:40:23;;;;;;;9.63;8.63;;;0.80;99.90;;;;;;5087444;28;20035;-66
2021/01/03 03:42:49;;;;;;;9.77;8.43;;;0.90;99.90;;;;;;5083569;28;20427;-65
2021/01/03 03:45:16;;;;;;;11.48;9.63;;;0.90;99.90;;;;;;5080228;28;20025;-65
2021/01/03 03:47:41;;;;;;;11.40;9.05;;;0.90;99.90;;;;;;5086386;28;20020;-65
2021/01/03 03:50:12;;;;;;;12.25;9.32;;;0.80;99.90;;;;;;5089778;28;20055;-66
2021/01/03 03:52:37;;;;;;;12.02;8.70;;;0.90;99.90;;;;;;5085973;28;20066;-65
2021/01/03 03:55:04;;;;;;;12.07;8.98;;;0.90;99.90;;;;;;5089119;28;20571;-66
2021/01/03 03:57:29;;;;;;;12.30;8.60;;;0.80;99.90;;;;;;5085176;28;20389;-65
2021/01/03 03:59:55;;;;;;;14.38;8.05;;;0.80;99.90;;;;;;5090598;28;20042;-65
2021/01/03 04:02:21;;;;;;;10.00;8.68;;;0.90;99.90;;;;;;5084781;28;20054;-66
2021/01/03 04:04:46;;;;;;;10.75;8.60;;;1.00;99.90;;;;;;5090735;28;20056;-65
2021/01/03 04:07:12;;;;;;;9.98;8.60;;;0.90;99.90;;;;;;5084890;28;20055;-65
2021/01/03 04:09:38;;;;;;;10.80;8.27;;;1.00;99.90;;;;;;5088216;28;20028;-66
2021/01/03 04:12:04;;;;;;;10.40;7.70;;;0.90;99.90;;;;;;5080297;28;20025;-65
2021/01/03 04:14:29;;;;;;;13.18;8.50;;;1.00;99.90;;;;;;5090250;28;20016;-65
2021/01/03 04:16:58;;;;;;;12.07;8.25;;;0.80;99.90;;;;;;5085450;28;20069;-65
2021/01/03 04:19:25;;;;;;;12.30;9.32;;;0.90;99.90;;;;;;5090106;28;20039;-65
2021/01/03 04:21:55;;;;;;;10.15;9.10;;;0.90;99.90;;;;;;5080706;28;20040;-65
2021/01/03 04:24:21;;;;;;;9.65;8.55;;;0.80;99.90;;;;;;5090148;28;20020;-65
2021/01/03 04:26:59;;;;;;;11.82;8.25;;;0.90;99.90;;;;;;5083988;28;20031;-65
2021/01/03 04:29:24;;;;;;;10.98;8.05;;;0.80;99.90;;;;;;5077281;28;20387;-65
2021/01/03 04:32:20;;;;;;;11.23;8.82;;;0.90;99.90;;;;;;5081369;28;20123;-66
2021/01/03 04:34:46;;;;;;;9.68;8.52;;;0.80;99.90;;;;;;5073493;28;20043;-65
2021/01/03 04:37:17;;;;;;;13.75;9.02;;;0.80;99.90;;;;;;5079004;28;20113;-65
2021/01/03 04:39:43;;;;;;;10.05;8.70;;;0.90;99.90;;;;;;5089972;28;20020;-65
2021/01/03 04:42:15;;;;;;;11.45;8.70;;;0.70;99.90;;;;;;5087712;28;20046;-65
2021/01/03 04:44:42;;;;;;;10.95;8.40;;;0.90;99.90;;;;;;5076482;28;20089;-66
2021/01/03 04:47:29;;;;;;;9.38;8.40;;;0.90;99.90;;;;;;5083810;28;20107;-66
2021/01/03 04:50:30;;;;;;;8.90;8.00;;;0.90;99.90;;;;;;5088378;28;20020;-65
2021/01/03 04:53:15;;;;;;;9.63;7.75;;;0.90;99.90;;;;;;5082311;28;20103;-65
2021/01/03 04:55:49;;;;;;;10.48;8.13;;;0.90;99.90;;;;;;5087369;28;20053;-65
2021/01/03 04:58:15;;;;;;;9.70;7.55;;;0.90;99.90;;;;;;5081377;28;20028;-65
2021/01/03 05:01:15;;;;;;;12.35;8.70;;;0.90;99.90;;;;;;5087375;28;20043;-66
2021/01/03 05:04:02;;;;;;;8.65;7.82;;;0.90;99.90;;;;;;5081634;28;20029;-65
2021/01/03 05:06:28;;;;;;;9.70;8.30;;;1.00;99.90;;;;;;5087008;28;20020;-65
2021/01/03 05:09:03;;;;;;;8.90;7.93;;;1.00;99.90;;;;;;5088396;28;20038;-65
2021/01/03 05:11:46;;;;;;;12.00;8.57;;;1.00;99.90;;;;;;5086201;28;20444;-65
2021/01/03 05:14:50;;;;;;;9.93;7.93;;;1.00;99.90;;;;;;5087535;28;20520;-65
2021/01/03 05:17:16;;;;;;;11.80;8.02;;;1.00;99.90;;;;;;5081113;28;20442;-65
2021/01/03 05:19:42;;;;;;;10.75;8.40;;;0.90;99.90;;;;;;5087100;28;20020;-65
2021/01/03 05:22:07;;;;;;;9.02;7.93;;;1.00;99.90;;;;;;5086388;28;20660;-65
2021/01/03 05:24:44;;;;;;;9.45;7.38;;;0.90;99.90;;;;;;5086397;28;20020;-66
2021/01/03 05:27:19;;;;;;;8.10;7.30;;;1.00;99.90;;;;;;5082905;28;20399;-65
2021/01/03 05:29:46;;;;;;;9.67;7.17;;;1.00;99.90;;;;;;5089299;28;20030;-65
2021/01/03 05:32:12;;;;;;;10.13;7.18;;;1.00;99.90;;;;;;5086445;28;20445;-66
2021/01/03 05:34:39;;;;;;;7.43;6.70;;;1.00;99.90;;;;;;5088500;28;20016;-65
2021/01/03 05:37:06;;;;;;;7.63;6.82;;;1.00;99.90;;;;;;5086034;28;20044;-65
2021/01/03 05:39:34;;;;;;;9.95;7.18;;;1.10;99.90;;;;;;5086933;28;20036;-66
2021/01/03 05:42:21;;;;;;;7.03;6.30;;;1.10;99.90;;;;;;5084761;28;20058;-65
2021/01/03 05:45:09;;;;;;;7.60;6.03;;;1.10;99.90;;;;;;5087868;28;20024;-66
2021/01/03 05:47:58;;;;;;;6.90;6.20;;;1.20;99.90;;;;;;5081507;28;20195;-65
2021/01/03 05:50:35;;;;;;;6.70;6.00;;;1.10;99.90;;;;;;5076006;28;20044;-65
2021/01/03 05:53:06;;;;;;;6.20;5.70;;;1.00;99.90;;;;;;5080769;28;20558;-66
2021/01/03 05:55:33;;;;;;;5.60;5.10;;;1.20;99.90;;;;;;5085040;28;20086;-65
2021/01/03 05:58:10;;;;;;;5.40;4.90;;;1.20;99.90;;;;;;5084923;28;20020;-65
2021/01/03 06:00:37;;;;;;;6.07;4.82;;;1.20;99.90;;;;;;5086592;28;20705;-66
2021/01/03 06:03:28;;;;;;;6.90;5.20;;;1.30;99.90;;;;;;5085322;28;20020;-66
2021/01/03 06:06:09;;;;;;;4.93;4.53;;;1.30;99.90;;;;;;5086767;28;20628;-65
2021/01/03 06:08:38;;;;;;;6.13;5.32;;;1.30;99.90;;;;;;5080922;28;20508;-65
2021/01/03 06:11:20;;;;;;;6.68;5.32;;;1.30;99.90;;;;;;5086082;28;20024;-66
2021/01/03 06:13:55;;;;;;;6.55;5.35;;;1.30;99.90;;;;;;5082176;28;20031;-65
2021/01/03 06:16:39;;;;;;;7.80;5.40;;;1.40;99.90;;;;;;5084612;28;20047;-65
2021/01/03 06:19:28;;;;;;;5.28;4.78;;;1.30;99.90;;;;;;5088298;28;20495;-66
2021/01/03 06:21:54;;;;;;;6.32;5.72;;;1.30;99.90;;;;;;5087695;28;20024;-65
2021/01/03 06:24:28;;;;;;;6.07;5.47;;;1.20;99.90;;;;;;5088774;28;20031;-65
2021/01/03 06:26:59;;;;;;;6.90;5.80;;;1.30;99.90;;;;;;5088818;28;20496;-65
2021/01/03 06:29:45;;;;;;;6.00;5.47;;;1.40;99.90;;;;;;5091680;28;20030;-68
2021/01/03 06:32:36;;;;;;;5.85;5.35;;;1.40;99.90;;;;;;5084740;28;20025;-65
2021/01/03 06:35:17;;;;;;;6.30;5.68;;;1.50;99.90;;;;;;5073574;28;20498;-66
2021/01/03 06:38:27;;;;;;;5.35;4.82;;;1.30;99.90;;;;;;5083355;28;20020;-66
2021/01/03 06:41:15;;;;;;;9.10;5.57;;;1.40;99.90;;;;;;5073363;28;20093;-65
2021/01/03 06:44:18;;;;;;;5.90;5.38;;;1.40;99.90;;;;;;5087565;28;20543;-63
2021/01/03 06:47:22;;;;;;;6.95;5.28;;;2.30;99.90;;;;;;5084368;28;20023;-66
2021/01/03 06:50:17;;;;;;;7.45;5.68;;;1.90;99.90;;;;;;5089518;28;20028;-64
2021/01/03 06:52:55;;;;;;;7.55;6.82;;;1.80;99.90;;;;;;5057303;28;20043;-62
2021/01/03 06:56:02;;;;;;;7.55;6.82;;;1.60;99.90;;;;;;5086540;28;20028;-63
2021/01/03 06:58:40;;;;;;;6.55;5.95;;;1.50;99.90;;;;;;5077895;28;20374;-63
2021/01/03 07:01:23;;;;;;;8.23;7.07;;;1.40;99.90;;;;;;5085929;28;20036;-63
2021/01/03 07:03:53;;;;;;;8.35;7.13;;;1.10;99.90;;;;;;5088161;28;20028;-63
2021/01/03 07:06:21;;;;;;;7.63;6.75;;;1.00;99.90;;;;;;5084806;28;20108;-63
2021/01/03 07:08:53;;;;;;;9.90;7.22;;;1.10;99.90;;;;;;5088114;28;20073;-64
2021/01/03 07:11:43;;;;;;;8.80;6.85;;;1.00;99.90;;;;;;5082860;28;20036;-64
2021/01/03 07:14:19;;;;;;;11.63;8.60;;;1.00;99.90;;;;;;5084242;28;20030;-63
2021/01/03 07:16:58;;;;;;;14.10;9.55;;;1.00;99.90;;;;;;5088088;28;20048;-64
2021/01/03 07:19:33;;;;;;;11.63;9.63;;;0.80;99.90;;;;;;5065687;28;20024;-64
2021/01/03 07:22:11;;;;;;;15.20;10.48;;;0.70;99.90;;;;;;5079576;28;20028;-64
2021/01/03 07:24:46;;;;;;;11.43;8.95;;;0.70;99.90;;;;;;5084244;28;20679;-64
2021/01/03 07:27:33;;;;;;;11.27;9.20;;;0.70;99.90;;;;;;5084154;28;20104;-64
2021/01/03 07:30:02;;;;;;;10.43;8.40;;;0.50;99.90;;;;;;5089902;28;20013;-64
2021/01/03 07:32:34;;;;;;;10.13;8.43;;;0.50;99.90;;;;;;5084974;28;20062;-65
2021/01/03 07:35:03;;;;;;;10.80;8.65;;;0.40;99.90;;;;;;5091263;28;20516;-64
2021/01/03 07:37:32;;;;;;;11.85;10.27;;;0.30;99.90;;;;;;5084865;28;20042;-63
2021/01/03 07:40:04;;;;;;;14.90;9.63;;;0.40;99.90;;;;;;5090876;28;20484;-63
2021/01/03 07:42:33;;;;;;;11.10;9.02;;;0.40;99.90;;;;;;5084986;28;20028;-64
2021/01/03 07:45:03;;;;;;;11.00;9.23;;;0.20;99.90;;;;;;5089943;28;20027;-65
2021/01/03 07:47:36;;;;;;;10.38;8.75;;;0.30;99.90;;;;;;5081825;28;20023;-63
2021/01/03 07:50:17;;;;;;;11.63;8.90;;;0.40;99.90;;;;;;5090941;28;20050;-65
2021/01/03 07:52:58;;;;;;;10.25;9.27;;;0.40;99.90;;;;;;5090696;28;20040;-68
2021/01/03 07:55:24;;;;;;;10.68;9.20;;;0.40;99.90;;;;;;5089688;28;20032;-63
2021/01/03 07:58:05;;;;;;;14.73;9.85;;;0.40;99.90;;;;;;5080879;28;20028;-64
2021/01/03 08:00:33;;;;;;;10.70;9.60;;;0.20;99.90;;;;;;5080638;28;20051;-64
2021/01/03 08:03:21;;;;;;;18.95;11.55;;;0.50;99.90;;;;;;5087076;28;20089;-63
2021/01/03 08:05:47;;;;;;;12.35;10.27;;;0.40;99.90;;;;;;5088575;28;20096;-63
2021/01/03 08:08:17;;;;;;;15.32;10.93;;;0.50;99.90;;;;;;5084339;28;20024;-63
2021/01/03 08:10:45;;;;;;;20.08;13.48;;;0.40;99.90;;;;;;5087365;28;20114;-63
2021/01/03 08:13:27;;;;;;;18.05;13.30;;;0.40;99.90;;;;;;5087510;28;20081;-65
2021/01/03 08:15:58;;;;;;;20.08;13.95;;;0.40;99.90;;;;;;5067875;28;20032;-64
2021/01/03 08:18:25;;;;;;;21.48;13.88;;;0.50;99.90;;;;;;5088985;28;20064;-64
2021/01/03 08:20:51;;;;;;;22.55;15.52;;;0.40;99.90;;;;;;5087221;28;20089;-64
2021/01/03 08:23:32;;;;;;;25.63;16.92;;;0.10;99.90;;;;;;5088552;28;20411;-63
2021/01/03 08:26:09;;;;;;;25.65;17.00;;;0.20;99.90;;;;;;5084834;28;20511;-63
2021/01/03 08:29:06;;;;;;;23.08;15.32;;;0.40;99.90;;;;;;5086167;28;20397;-64
2021/01/03 08:31:32;;;;;;;21.77;15.30;;;0.50;99.90;;;;;;5083478;28;20097;-64
2021/01/03 08:34:00;;;;;;;30.13;16.70;;;0.10;99.90;;;;;;5089871;28;20035;-64
2021/01/03 08:36:34;;;;;;;20.90;13.68;;;0.20;99.90;;;;;;5086768;28;20024;-64
2021/01/03 08:39:09;;;;;;;15.40;11.82;;;0.40;99.90;;;;;;5084108;28;20059;-64
2021/01/03 08:41:57;;;;;;;17.55;12.05;;;1.50;99.90;;;;;;5076768;28;20036;-65
2021/01/03 08:44:27;;;;;;;15.10;10.55;;;1.60;99.90;;;;;;5069347;28;20512;-64
2021/01/03 08:47:07;;;;;;;14.02;10.40;;;1.50;99.90;;;;;;5078206;28;20015;-64
2021/01/03 08:49:33;;;;;;;14.45;10.43;;;1.40;99.90;;;;;;5083620;28;20558;-64
2021/01/03 08:52:21;;;;;;;14.30;10.07;;;1.40;99.90;;;;;;5080666;28;20056;-63
2021/01/03 08:54:50;;;;;;;11.02;9.93;;;1.50;99.90;;;;;;5084400;28;20121;-64
2021/01/03 08:57:18;;;;;;;14.25;10.57;;;1.50;99.90;;;;;;5083285;28;20046;-63
2021/01/03 08:59:50;;;;;;;12.73;9.80;;;1.80;99.90;;;;;;5089919;28;20531;-64
2021/01/03 09:02:21;;;;;;;12.27;9.77;;;1.70;99.90;;;;;;5085427;28;20040;-63
2021/01/03 09:04:48;;;;;;;15.95;10.95;;;1.90;99.90;;;;;;5076041;28;20029;-63
2021/01/03 09:07:14;;;;;;;12.65;10.80;;;1.80;99.90;;;;;;5075049;28;20028;-63
2021/01/03 09:09:46;;;;;;;11.02;9.43;;;1.70;99.90;;;;;;5077750;28;20028;-64
2021/01/03 09:12:13;;;;;;;12.57;9.40;;;1.80;99.90;;;;;;5082586;28;20020;-61
2021/01/03 09:14:51;;;;;;;11.43;9.48;;;2.20;99.90;;;;;;5089693;28;20027;-61
2021/01/03 09:17:23;;;;;;;13.13;10.00;;;2.40;99.90;;;;;;5082463;28;20044;-64
2021/01/03 09:20:07;;;;;;;14.95;9.57;;;2.40;99.90;;;;;;5089697;28;20392;-61
2021/01/03 09:22:51;;;;;;;14.18;10.05;;;2.40;99.90;;;;;;5083474;28;20028;-61
2021/01/03 09:25:35;;;;;;;11.38;9.32;;;2.70;99.90;;;;;;5085786;28;20600;-60
2021/01/03 09:28:22;;;;;;;11.63;9.18;;;2.40;99.90;;;;;;5087455;28;20403;-61
2021/01/03 09:30:48;;;;;;;16.98;10.80;;;2.40;99.90;;;;;;5084424;28;20023;-61
2021/01/03 09:33:20;;;;;;;19.73;12.02;;;2.30;99.90;;;;;;5089359;28;20099;-63
2021/01/03 09:36:00;;;;;;;12.77;9.65;;;2.60;99.90;;;;;;5085884;28;20031;-62
2021/01/03 09:38:31;;;;;;;10.82;9.20;;;2.80;99.90;;;;;;5088420;28;20032;-63
2021/01/03 09:41:12;;;;;;;11.70;9.45;;;3.00;99.90;;;;;;5086218;28;20559;-62
2021/01/03 09:43:44;;;;;;;11.40;9.55;;;3.10;99.90;;;;;;5054711;28;20166;-60
2021/01/03 09:46:54;;;;;;;12.25;9.73;;;3.10;99.90;;;;;;5083739;28;20497;-61
2021/01/03 09:49:29;;;;;;;10.73;8.43;;;3.30;99.90;;;;;;5081410;28;20116;-65
2021/01/03 09:52:26;;;;;;;9.02;8.20;;;3.10;99.90;;;;;;5074661;28;20424;-62
2021/01/03 09:55:27;;;;;;;9.23;8.25;;;3.20;99.90;;;;;;5072933;28;20031;-62
2021/01/03 09:58:05;;;;;;;9.93;7.95;;;3.30;99.90;;;;;;5082262;28;20039;-62
2021/01/03 10:00:45;;;;;;;12.25;7.63;;;3.40;99.90;;;;;;5084827;28;20036;-62
2021/01/03 10:03:26;;;;;;;8.65;7.82;;;3.50;99.90;;;;;;5089984;28;20581;-62
2021/01/03 10:05:53;;;;;;;9.02;7.07;;;3.60;99.90;;;;;;5080134;28;20028;-63
2021/01/03 10:08:23;;;;;;;7.32;6.70;;;3.70;99.90;;;;;;5090530;28;20028;-62
2021/01/03 10:10:56;;;;;;;8.50;7.65;;;3.90;99.90;;;;;;5088607;28;20036;-63
2021/01/03 10:13:24;;;;;;;8.52;7.72;;;3.80;99.90;;;;;;5091071;28;20490;-62
2021/01/03 10:15:50;;;;;;;8.20;7.50;;;4.10;99.90;;;;;;5088663;28;20044;-63
2021/01/03 10:18:37;;;;;;;6.85;6.15;;;3.90;99.90;;;;;;5083061;28;20039;-62
2021/01/03 10:21:25;;;;;;;8.13;7.30;;;4.00;99.90;;;;;;5087124;28;20066;-62
2021/01/03 10:23:59;;;;;;;6.78;6.18;;;3.80;99.90;;;;;;5091750;28;20027;-62
2021/01/03 10:26:34;;;;;;;6.03;5.53;;;4.50;99.90;;;;;;5086009;28;20506;-62
2021/01/03 10:29:00;;;;;;;9.30;6.70;;;4.50;99.90;;;;;;5092424;28;20024;-64
2021/01/03 10:31:47;;;;;;;7.65;6.88;;;4.70;99.90;;;;;;5085645;28;20059;-62
2021/01/03 10:34:18;;;;;;;6.28;5.65;;;4.80;99.90;;;;;;5076627;28;20466;-62
2021/01/03 10:36:45;;;;;;;7.25;6.65;;;4.60;99.90;;;;;;5090007;28;20107;-60
2021/01/03 10:39:12;;;;;;;6.65;6.03;;;4.40;99.90;;;;;;5077137;28;20092;-62
2021/01/03 10:41:39;;;;;;;7.60;6.10;;;4.40;99.90;;;;;;5077628;28;20066;-62
2021/01/03 10:44:06;;;;;;;6.78;6.18;;;4.70;99.90;;;;;;5089095;28;20013;-62
2021/01/03 10:46:32;;;;;;;7.13;6.53;;;5.00;99.90;;;;;;5081262;28;20111;-62
2021/01/03 10:48:58;;;;;;;6.93;6.28;;;5.30;99.90;;;;;;5090119;28;20095;-62
2021/01/03 10:51:35;;;;;;;6.95;6.35;;;5.30;99.90;;;;;;5078482;28;20036;-63
2021/01/03 10:54:03;;;;;;;6.90;6.18;;;5.10;99.90;;;;;;5084238;28;20019;-62
2021/01/03 10:56:28;;;;;;;6.50;5.90;;;5.10;99.90;;;;;;5087266;28;20043;-62
2021/01/03 10:58:54;;;;;;;7.10;6.28;;;5.10;99.90;;;;;;5083746;28;20389;-63
2021/01/03 11:01:21;;;;;;;6.63;6.00;;;5.20;99.90;;;;;;5086927;28;20032;-62
2021/01/03 11:03:47;;;;;;;6.80;6.20;;;5.20;99.90;;;;;;5094249;28;20020;-61
2021/01/03 11:06:13;;;;;;;7.65;6.93;;;5.10;99.90;;;;;;5086240;28;20027;-62
2021/01/03 11:08:39;;;;;;;7.38;6.68;;;5.50;99.90;;;;;;5091034;28;20039;-62
2021/01/03 11:11:06;;;;;;;6.07;5.57;;;5.40;99.90;;;;;;5083427;28;20103;-61
2021/01/03 11:13:33;;;;;;;5.90;5.40;;;6.00;99.90;;;;;;5087658;28;20018;-62
2021/01/03 11:15:58;;;;;;;5.90;5.47;;;6.30;99.90;;;;;;5086563;28;20032;-62
2021/01/03 11:18:24;;;;;;;6.78;6.18;;;6.10;99.90;;;;;;5085475;28;20093;-62
2021/01/03 11:20:51;;;;;;;6.18;5.68;;;6.40;99.90;;;;;;5087824;28;20032;-63
2021/01/03 11:23:17;;;;;;;6.22;5.72;;;6.80;99.90;;;;;;5087199;28;20055;-62
2021/01/03 11:25:45;;;;;;;7.18;5.32;;;6.40;99.90;;;;;;5086590;28;20081;-61
2021/01/03 11:28:11;;;;;;;7.28;6.57;;;6.70;99.90;;;;;;5088006;28;20024;-62
2021/01/03 11:30:36;;;;;;;5.50;5.10;;;7.30;99.90;;;;;;5088363;28;20035;-62
2021/01/03 11:33:02;;;;;;;5.90;5.40;;;6.90;99.90;;;;;;5080126;28;20381;-62
2021/01/03 11:35:28;;;;;;;6.13;5.38;;;6.70;99.90;;;;;;5088858;28;20028;-61
2021/01/03 11:37:53;;;;;;;5.45;4.95;;;6.60;99.90;;;;;;5089601;28;20016;-61
2021/01/03 11:40:19;;;;;;;5.85;5.28;;;7.30;99.90;;;;;;5092146;28;20318;-60
2021/01/03 11:42:45;;;;;;;5.75;5.25;;;7.60;99.90;;;;;;5087858;28;20020;-62
2021/01/03 11:45:15;;;;;;;6.68;6.07;;;7.60;99.90;;;;;;5090022;28;20503;-61
2021/01/03 11:47:41;;;;;;;10.43;6.93;;;7.80;99.90;;;;;;5085196;28;20669;-61
2021/01/03 11:50:10;;;;;;;6.35;5.65;;;8.20;99.90;;;;;;5090863;28;20028;-62
2021/01/03 11:52:36;;;;;;;6.00;5.45;;;7.80;99.90;;;;;;5085070;28;20028;-60
2021/01/03 11:55:04;;;;;;;5.80;5.25;;;8.00;99.90;;;;;;5090130;28;20058;-60
2021/01/03 11:57:30;;;;;;;5.60;5.10;;;8.50;99.90;;;;;;5082592;28;20619;-61
2021/01/03 11:59:56;;;;;;;5.57;5.10;;;8.60;99.90;;;;;;5088201;28;20047;-60
2021/01/03 12:02:21;;;;;;;5.57;5.07;;;8.60;99.90;;;;;;5084155;28;20408;-60
2021/01/03 12:04:47;;;;;;;4.68;4.38;;;8.30;99.90;;;;;;5090654;28;20024;-60
2021/01/03 12:07:17;;;;;;;4.20;3.90;;;8.50;99.90;;;;;;5084218;28;20024;-60
2021/01/03 12:09:43;;;;;;;4.10;3.80;;;8.50;99.90;;;;;;5083221;28;20012;-60
2021/01/03 12:12:12;;;;;;;4.78;4.38;;;8.50;99.90;;;;;;5088427;28;20039;-62
2021/01/03 12:14:39;;;;;;;4.38;3.97;;;8.40;99.90;;;;;;5089432;28;20016;-60
2021/01/03 12:17:17;;;;;;;3.95;3.63;;;8.50;99.90;;;;;;5083175;28;20048;-60
2021/01/03 12:19:45;;;;;;;4.28;3.97;;;8.80;99.90;;;;;;5078204;28;20073;-60
2021/01/03 12:22:11;;;;;;;4.10;3.80;;;8.70;99.90;;;;;;5080089;28;20044;-60
2021/01/03 12:24:36;;;;;;;3.88;3.58;;;9.40;99.90;;;;;;5089276;28;20504;-60
2021/01/03 12:27:03;;;;;;;3.55;3.28;;;9.30;99.90;;;;;;5082835;28;20085;-60
2021/01/03 12:29:29;;;;;;;3.58;3.28;;;9.40;99.90;;;;;;5090438;28;20064;-60
2021/01/03 12:32:00;;;;;;;3.15;2.95;;;9.20;99.90;;;;;;5083700;28;20473;-60
2021/01/03 12:34:28;;;;;;;3.92;3.63;;;9.30;99.90;;;;;;5085023;28;20024;-61
2021/01/03 12:37:05;;;;;;;4.20;3.67;;;9.60;99.90;;;;;;5083459;28;20020;-62
2021/01/03 12:39:32;;;;;;;3.97;3.67;;;9.60;99.90;;;;;;5090016;28;20024;-60
2021/01/03 12:41:57;;;;;;;3.75;3.45;;;9.30;99.90;;;;;;5084843;28;20024;-60
2021/01/03 12:44:23;;;;;;;3.85;3.55;;;9.30;99.90;;;;;;5076664;28;20606;-60
2021/01/03 12:46:49;;;;;;;4.38;3.97;;;9.50;99.90;;;;;;5079477;28;20104;-60
2021/01/03 12:49:14;;;;;;;3.25;3.05;;;9.60;99.90;;;;;;5085439;28;20396;-61
2021/01/03 12:51:40;;;;;;;3.97;3.67;;;10.30;99.90;;;;;;5087005;28;20601;-60
2021/01/03 12:54:07;;;;;;;4.22;3.83;;;9.80;99.90;;;;;;5077055;28;20684;-60
2021/01/03 12:56:33;;;;;;;4.20;3.90;;;9.20;99.20;;;;;;5080439;28;20602;-61
2021/01/03 12:59:00;;;;;;;3.97;3.67;;;9.20;99.90;;;;;;5077368;28;20012;-61
2021/01/03 13:01:35;;;;;;;4.45;4.15;;;9.00;99.90;;;;;;5080866;28;20032;-60
2021/01/03 13:04:04;;;;;;;3.97;3.67;;;9.00;99.90;;;;;;5082382;28;20020;-61
2021/01/03 13:06:29;;;;;;;4.20;3.90;;;9.20;99.90;;;;;;5083384;28;20071;-63
2021/01/03 13:08:55;;;;;;;3.42;3.22;;;9.00;99.90;;;;;;5074421;28;20537;-58
2021/01/03 13:11:21;;;;;;;4.63;4.22;;;9.50;99.70;;;;;;5074131;28;20090;-59
2021/01/03 13:13:47;;;;;;;3.55;3.35;;;9.70;99.70;;;;;;5084703;28;20476;-59
2021/01/03 13:16:13;;;;;;;3.72;3.42;;;9.70;99.80;;;;;;5083693;28;20087;-59